sensor_id;sensor_type;location;lat;lon;timestamp;temperature;humidity
75621;DHT22;64574;48.506;-2.750;2023-03-23T00:01:13;12.00;74.80
75621;DHT22;64574;48.506;-2.750;2023-03-23T00:03:40;12.00;75.00
75621;DHT22;64574;48.506;-2.750;2023-03-23T00:06:06;12.00;74.90
75621;DHT22;64574;48.506;-2.750;2023-03-23T00:08:36;12.00;74.90
75621;DHT22;64574;48.506;-2.750;2023-03-23T00:11:17;12.00;74.80
75621;DHT22;64574;48.506;-2.750;2023-03-23T00:13:45;12.00;74.90
75621;DHT22;64574;48.506;-2.750;2023-03-23T00:16:13;12.00;74.80
75621;DHT22;64574;48.506;-2.750;2023-03-23T00:18:49;12.00;74.70
75621;DHT22;64574;48.506;-2.750;2023-03-23T00:21:18;12.00;74.50
75621;DHT22;64574;48.506;-2.750;2023-03-23T00:23:44;12.00;74.40
75621;DHT22;64574;48.506;-2.750;2023-03-23T00:26:10;12.00;74.50
75621;DHT22;64574;48.506;-2.750;2023-03-23T00:28:36;12.00;74.60
75621;DHT22;64574;48.506;-2.750;2023-03-23T00:31:05;12.00;74.70
75621;DHT22;64574;48.506;-2.750;2023-03-23T00:33:33;12.00;74.60
75621;DHT22;64574;48.506;-2.750;2023-03-23T00:36:10;12.10;74.40
75621;DHT22;64574;48.506;-2.750;2023-03-23T00:38:36;12.00;74.10
75621;DHT22;64574;48.506;-2.750;2023-03-23T00:41:03;12.10;74.20
75621;DHT22;64574;48.506;-2.750;2023-03-23T00:43:29;12.00;74.50
75621;DHT22;64574;48.506;-2.750;2023-03-23T00:45:56;12.00;75.50
75621;DHT22;64574;48.506;-2.750;2023-03-23T00:48:24;11.90;77.00
75621;DHT22;64574;48.506;-2.750;2023-03-23T00:50:50;11.90;78.00
75621;DHT22;64574;48.506;-2.750;2023-03-23T00:53:17;11.70;78.90
75621;DHT22;64574;48.506;-2.750;2023-03-23T00:55:45;11.70;79.70
75621;DHT22;64574;48.506;-2.750;2023-03-23T00:58:12;11.70;79.60
75621;DHT22;64574;48.506;-2.750;2023-03-23T01:00:38;11.70;79.70
75621;DHT22;64574;48.506;-2.750;2023-03-23T01:03:05;11.70;79.70
75621;DHT22;64574;48.506;-2.750;2023-03-23T01:05:35;11.70;79.50
75621;DHT22;64574;48.506;-2.750;2023-03-23T01:08:02;11.70;79.70
75621;DHT22;64574;48.506;-2.750;2023-03-23T01:10:28;11.70;79.80
75621;DHT22;64574;48.506;-2.750;2023-03-23T01:12:54;11.70;80.00
75621;DHT22;64574;48.506;-2.750;2023-03-23T01:15:20;11.70;80.00
75621;DHT22;64574;48.506;-2.750;2023-03-23T01:17:46;11.70;80.20
75621;DHT22;64574;48.506;-2.750;2023-03-23T01:20:13;11.80;80.20
75621;DHT22;64574;48.506;-2.750;2023-03-23T01:22:40;11.70;80.40
75621;DHT22;64574;48.506;-2.750;2023-03-23T01:25:07;11.70;80.30
75621;DHT22;64574;48.506;-2.750;2023-03-23T01:27:33;11.70;80.20
75621;DHT22;64574;48.506;-2.750;2023-03-23T01:29:58;11.60;80.40
75621;DHT22;64574;48.506;-2.750;2023-03-23T01:32:24;11.60;79.80
75621;DHT22;64574;48.506;-2.750;2023-03-23T01:34:50;11.50;79.00
75621;DHT22;64574;48.506;-2.750;2023-03-23T01:37:15;11.60;79.00
75621;DHT22;64574;48.506;-2.750;2023-03-23T01:39:42;11.60;78.40
75621;DHT22;64574;48.506;-2.750;2023-03-23T01:42:10;11.60;78.20
75621;DHT22;64574;48.506;-2.750;2023-03-23T01:47:02;11.60;78.30
75621;DHT22;64574;48.506;-2.750;2023-03-23T01:49:31;11.50;78.80
75621;DHT22;64574;48.506;-2.750;2023-03-23T01:52:11;11.50;79.40
75621;DHT22;64574;48.506;-2.750;2023-03-23T01:54:42;11.50;79.60
75621;DHT22;64574;48.506;-2.750;2023-03-23T01:57:15;11.60;79.70
75621;DHT22;64574;48.506;-2.750;2023-03-23T01:59:44;11.70;79.20
75621;DHT22;64574;48.506;-2.750;2023-03-23T02:02:12;11.60;79.20
75621;DHT22;64574;48.506;-2.750;2023-03-23T02:04:38;11.60;79.00
75621;DHT22;64574;48.506;-2.750;2023-03-23T02:07:04;11.70;78.80
75621;DHT22;64574;48.506;-2.750;2023-03-23T02:09:30;11.60;78.50
75621;DHT22;64574;48.506;-2.750;2023-03-23T02:11:56;11.70;78.10
75621;DHT22;64574;48.506;-2.750;2023-03-23T02:14:24;11.60;78.00
75621;DHT22;64574;48.506;-2.750;2023-03-23T02:17:11;11.70;77.60
75621;DHT22;64574;48.506;-2.750;2023-03-23T02:25:58;11.60;77.60
75621;DHT22;64574;48.506;-2.750;2023-03-23T02:33:56;11.50;77.30
75621;DHT22;64574;48.506;-2.750;2023-03-23T02:38:57;11.50;76.80
75621;DHT22;64574;48.506;-2.750;2023-03-23T02:41:31;11.50;76.70
75621;DHT22;64574;48.506;-2.750;2023-03-23T02:43:57;11.50;76.50
75621;DHT22;64574;48.506;-2.750;2023-03-23T02:46:24;11.50;76.10
75621;DHT22;64574;48.506;-2.750;2023-03-23T02:48:53;11.50;75.80
75621;DHT22;64574;48.506;-2.750;2023-03-23T02:51:21;11.50;75.50
75621;DHT22;64574;48.506;-2.750;2023-03-23T02:53:49;11.50;75.40
75621;DHT22;64574;48.506;-2.750;2023-03-23T02:56:17;11.50;75.30
75621;DHT22;64574;48.506;-2.750;2023-03-23T02:58:44;11.50;74.90
75621;DHT22;64574;48.506;-2.750;2023-03-23T03:03:41;11.50;74.70
75621;DHT22;64574;48.506;-2.750;2023-03-23T03:11:18;11.50;75.00
75621;DHT22;64574;48.506;-2.750;2023-03-23T03:14:21;11.40;74.80
75621;DHT22;64574;48.506;-2.750;2023-03-23T03:17:06;11.40;75.00
75621;DHT22;64574;48.506;-2.750;2023-03-23T03:19:38;11.50;74.70
75621;DHT22;64574;48.506;-2.750;2023-03-23T03:22:06;11.50;74.70
75621;DHT22;64574;48.506;-2.750;2023-03-23T03:24:33;11.50;74.90
75621;DHT22;64574;48.506;-2.750;2023-03-23T03:27:04;11.50;74.80
75621;DHT22;64574;48.506;-2.750;2023-03-23T03:29:36;11.40;75.10
75621;DHT22;64574;48.506;-2.750;2023-03-23T03:32:06;11.40;75.30
75621;DHT22;64574;48.506;-2.750;2023-03-23T03:34:33;11.50;75.40
75621;DHT22;64574;48.506;-2.750;2023-03-23T03:37:00;11.40;75.60
75621;DHT22;64574;48.506;-2.750;2023-03-23T03:39:26;11.40;75.80
75621;DHT22;64574;48.506;-2.750;2023-03-23T03:41:52;11.40;75.90
75621;DHT22;64574;48.506;-2.750;2023-03-23T03:44:19;11.40;76.10
75621;DHT22;64574;48.506;-2.750;2023-03-23T03:46:45;11.40;76.20
75621;DHT22;64574;48.506;-2.750;2023-03-23T03:49:11;11.40;76.30
75621;DHT22;64574;48.506;-2.750;2023-03-23T03:51:40;11.40;76.40
75621;DHT22;64574;48.506;-2.750;2023-03-23T03:54:06;11.40;76.40
75621;DHT22;64574;48.506;-2.750;2023-03-23T03:56:31;11.40;76.50
75621;DHT22;64574;48.506;-2.750;2023-03-23T03:59:01;11.40;76.50
75621;DHT22;64574;48.506;-2.750;2023-03-23T04:01:27;11.40;76.60
75621;DHT22;64574;48.506;-2.750;2023-03-23T04:03:54;11.40;76.70
75621;DHT22;64574;48.506;-2.750;2023-03-23T04:06:21;11.40;76.80
75621;DHT22;64574;48.506;-2.750;2023-03-23T04:08:47;11.40;76.60
75621;DHT22;64574;48.506;-2.750;2023-03-23T04:11:13;11.40;76.90
75621;DHT22;64574;48.506;-2.750;2023-03-23T04:13:40;11.30;77.00
75621;DHT22;64574;48.506;-2.750;2023-03-23T04:16:07;11.30;77.10
75621;DHT22;64574;48.506;-2.750;2023-03-23T04:18:33;11.30;77.10
75621;DHT22;64574;48.506;-2.750;2023-03-23T04:21:00;11.30;77.10
75621;DHT22;64574;48.506;-2.750;2023-03-23T04:23:28;11.30;77.10
75621;DHT22;64574;48.506;-2.750;2023-03-23T04:25:56;11.30;76.90
75621;DHT22;64574;48.506;-2.750;2023-03-23T04:28:24;11.30;77.00
75621;DHT22;64574;48.506;-2.750;2023-03-23T04:30:53;11.30;77.20
75621;DHT22;64574;48.506;-2.750;2023-03-23T04:33:20;11.30;77.20
75621;DHT22;64574;48.506;-2.750;2023-03-23T04:35:47;11.30;77.50
75621;DHT22;64574;48.506;-2.750;2023-03-23T04:38:14;11.30;77.60
75621;DHT22;64574;48.506;-2.750;2023-03-23T04:40:42;11.30;77.90
75621;DHT22;64574;48.506;-2.750;2023-03-23T04:43:08;11.30;77.80
75621;DHT22;64574;48.506;-2.750;2023-03-23T04:45:35;11.30;77.80
75621;DHT22;64574;48.506;-2.750;2023-03-23T04:48:04;11.30;77.90
75621;DHT22;64574;48.506;-2.750;2023-03-23T04:50:31;11.30;77.60
75621;DHT22;64574;48.506;-2.750;2023-03-23T04:52:59;11.30;77.70
75621;DHT22;64574;48.506;-2.750;2023-03-23T04:55:31;11.30;77.70
75621;DHT22;64574;48.506;-2.750;2023-03-23T04:57:57;11.30;77.70
75621;DHT22;64574;48.506;-2.750;2023-03-23T05:00:26;11.30;77.50
75621;DHT22;64574;48.506;-2.750;2023-03-23T05:02:52;11.30;77.40
75621;DHT22;64574;48.506;-2.750;2023-03-23T05:05:20;11.30;77.40
75621;DHT22;64574;48.506;-2.750;2023-03-23T05:07:47;11.20;77.60
75621;DHT22;64574;48.506;-2.750;2023-03-23T05:10:13;11.30;77.70
75621;DHT22;64574;48.506;-2.750;2023-03-23T05:12:41;11.30;77.70
75621;DHT22;64574;48.506;-2.750;2023-03-23T05:15:07;11.30;77.50
75621;DHT22;64574;48.506;-2.750;2023-03-23T05:17:33;11.30;77.50
75621;DHT22;64574;48.506;-2.750;2023-03-23T05:20:00;11.30;77.50
75621;DHT22;64574;48.506;-2.750;2023-03-23T05:22:27;11.20;77.40
75621;DHT22;64574;48.506;-2.750;2023-03-23T05:24:53;11.20;77.50
75621;DHT22;64574;48.506;-2.750;2023-03-23T05:27:19;11.30;77.30
75621;DHT22;64574;48.506;-2.750;2023-03-23T05:29:46;11.20;77.30
75621;DHT22;64574;48.506;-2.750;2023-03-23T05:32:15;11.20;77.50
75621;DHT22;64574;48.506;-2.750;2023-03-23T05:34:42;11.20;77.30
75621;DHT22;64574;48.506;-2.750;2023-03-23T05:37:09;11.20;77.50
75621;DHT22;64574;48.506;-2.750;2023-03-23T05:39:35;11.20;77.50
75621;DHT22;64574;48.506;-2.750;2023-03-23T05:42:01;11.20;77.80
75621;DHT22;64574;48.506;-2.750;2023-03-23T05:44:26;11.30;77.80
75621;DHT22;64574;48.506;-2.750;2023-03-23T05:46:52;11.30;77.70
75621;DHT22;64574;48.506;-2.750;2023-03-23T05:49:18;11.30;77.70
75621;DHT22;64574;48.506;-2.750;2023-03-23T05:51:44;11.30;77.70
75621;DHT22;64574;48.506;-2.750;2023-03-23T05:54:11;11.30;78.20
75621;DHT22;64574;48.506;-2.750;2023-03-23T05:56:37;11.30;78.10
75621;DHT22;64574;48.506;-2.750;2023-03-23T05:59:03;11.20;78.50
75621;DHT22;64574;48.506;-2.750;2023-03-23T06:01:29;11.20;78.50
75621;DHT22;64574;48.506;-2.750;2023-03-23T06:03:54;11.20;78.50
75621;DHT22;64574;48.506;-2.750;2023-03-23T06:06:24;11.30;78.70
75621;DHT22;64574;48.506;-2.750;2023-03-23T06:08:50;11.30;78.80
75621;DHT22;64574;48.506;-2.750;2023-03-23T06:11:16;11.30;78.60
75621;DHT22;64574;48.506;-2.750;2023-03-23T06:13:41;11.30;78.60
75621;DHT22;64574;48.506;-2.750;2023-03-23T06:16:07;11.30;78.70
75621;DHT22;64574;48.506;-2.750;2023-03-23T06:18:34;11.40;78.60
75621;DHT22;64574;48.506;-2.750;2023-03-23T06:21:03;11.30;78.50
75621;DHT22;64574;48.506;-2.750;2023-03-23T06:23:29;11.40;78.60
75621;DHT22;64574;48.506;-2.750;2023-03-23T06:25:58;11.30;78.70
75621;DHT22;64574;48.506;-2.750;2023-03-23T06:28:24;11.30;78.60
75621;DHT22;64574;48.506;-2.750;2023-03-23T06:30:50;11.30;78.40
75621;DHT22;64574;48.506;-2.750;2023-03-23T06:33:16;11.30;78.20
75621;DHT22;64574;48.506;-2.750;2023-03-23T06:35:43;11.30;78.00
75621;DHT22;64574;48.506;-2.750;2023-03-23T06:38:09;11.30;77.90
75621;DHT22;64574;48.506;-2.750;2023-03-23T06:40:35;11.30;77.90
75621;DHT22;64574;48.506;-2.750;2023-03-23T06:43:02;11.30;77.70
75621;DHT22;64574;48.506;-2.750;2023-03-23T06:45:30;11.30;77.70
75621;DHT22;64574;48.506;-2.750;2023-03-23T06:47:56;11.40;77.50
75621;DHT22;64574;48.506;-2.750;2023-03-23T06:50:22;11.40;77.40
75621;DHT22;64574;48.506;-2.750;2023-03-23T06:52:50;11.40;77.20
75621;DHT22;64574;48.506;-2.750;2023-03-23T06:55:17;11.40;77.00
75621;DHT22;64574;48.506;-2.750;2023-03-23T06:57:43;11.40;77.00
75621;DHT22;64574;48.506;-2.750;2023-03-23T07:00:11;11.40;76.80
75621;DHT22;64574;48.506;-2.750;2023-03-23T07:02:42;11.40;77.00
75621;DHT22;64574;48.506;-2.750;2023-03-23T07:05:10;11.40;76.90
75621;DHT22;64574;48.506;-2.750;2023-03-23T07:07:36;11.50;76.60
75621;DHT22;64574;48.506;-2.750;2023-03-23T07:10:03;11.50;76.50
75621;DHT22;64574;48.506;-2.750;2023-03-23T07:12:29;11.50;76.50
75621;DHT22;64574;48.506;-2.750;2023-03-23T07:14:55;11.50;76.20
75621;DHT22;64574;48.506;-2.750;2023-03-23T07:17:21;11.50;76.10
75621;DHT22;64574;48.506;-2.750;2023-03-23T07:19:46;11.50;76.00
75621;DHT22;64574;48.506;-2.750;2023-03-23T07:22:12;11.50;76.00
75621;DHT22;64574;48.506;-2.750;2023-03-23T07:24:38;11.50;76.00
75621;DHT22;64574;48.506;-2.750;2023-03-23T07:27:03;11.50;76.10
75621;DHT22;64574;48.506;-2.750;2023-03-23T07:29:29;11.50;76.10
75621;DHT22;64574;48.506;-2.750;2023-03-23T07:31:55;11.60;75.70
75621;DHT22;64574;48.506;-2.750;2023-03-23T07:34:21;11.60;75.50
75621;DHT22;64574;48.506;-2.750;2023-03-23T07:36:47;11.70;75.40
75621;DHT22;64574;48.506;-2.750;2023-03-23T07:39:13;11.70;75.30
75621;DHT22;64574;48.506;-2.750;2023-03-23T07:41:39;11.70;75.30
75621;DHT22;64574;48.506;-2.750;2023-03-23T07:44:05;11.70;75.20
75621;DHT22;64574;48.506;-2.750;2023-03-23T07:46:32;11.70;74.90
75621;DHT22;64574;48.506;-2.750;2023-03-23T07:48:58;11.70;74.80
75621;DHT22;64574;48.506;-2.750;2023-03-23T07:51:24;11.80;74.90
75621;DHT22;64574;48.506;-2.750;2023-03-23T07:53:50;11.80;75.10
75621;DHT22;64574;48.506;-2.750;2023-03-23T07:56:17;11.80;75.20
75621;DHT22;64574;48.506;-2.750;2023-03-23T07:58:45;11.90;75.10
75621;DHT22;64574;48.506;-2.750;2023-03-23T08:01:11;11.90;75.10
75621;DHT22;64574;48.506;-2.750;2023-03-23T08:03:37;11.90;75.10
75621;DHT22;64574;48.506;-2.750;2023-03-23T08:06:04;12.00;75.00
75621;DHT22;64574;48.506;-2.750;2023-03-23T08:08:31;12.00;75.10
75621;DHT22;64574;48.506;-2.750;2023-03-23T08:10:57;12.00;75.00
75621;DHT22;64574;48.506;-2.750;2023-03-23T08:13:23;12.10;75.10
75621;DHT22;64574;48.506;-2.750;2023-03-23T08:15:48;12.20;75.40
75621;DHT22;64574;48.506;-2.750;2023-03-23T08:18:15;12.30;75.50
75621;DHT22;64574;48.506;-2.750;2023-03-23T08:20:41;12.30;75.00
75621;DHT22;64574;48.506;-2.750;2023-03-23T08:23:07;12.50;75.00
75621;DHT22;64574;48.506;-2.750;2023-03-23T08:25:33;12.50;74.80
75621;DHT22;64574;48.506;-2.750;2023-03-23T08:27:59;12.50;74.10
75621;DHT22;64574;48.506;-2.750;2023-03-23T08:30:27;12.50;74.30
75621;DHT22;64574;48.506;-2.750;2023-03-23T08:32:57;12.50;74.40
75621;DHT22;64574;48.506;-2.750;2023-03-23T08:35:23;12.50;73.80
75621;DHT22;64574;48.506;-2.750;2023-03-23T08:37:49;12.50;73.80
75621;DHT22;64574;48.506;-2.750;2023-03-23T08:40:21;12.50;73.60
75621;DHT22;64574;48.506;-2.750;2023-03-23T08:42:48;12.50;73.40
75621;DHT22;64574;48.506;-2.750;2023-03-23T08:45:19;12.50;73.40
75621;DHT22;64574;48.506;-2.750;2023-03-23T08:47:45;12.50;73.00
75621;DHT22;64574;48.506;-2.750;2023-03-23T08:50:14;12.50;73.00
75621;DHT22;64574;48.506;-2.750;2023-03-23T08:52:40;12.50;72.90
75621;DHT22;64574;48.506;-2.750;2023-03-23T08:55:07;12.60;72.90
75621;DHT22;64574;48.506;-2.750;2023-03-23T08:57:34;12.50;72.70
75621;DHT22;64574;48.506;-2.750;2023-03-23T09:00:00;12.60;72.30
75621;DHT22;64574;48.506;-2.750;2023-03-23T09:02:38;12.70;72.20
75621;DHT22;64574;48.506;-2.750;2023-03-23T09:05:04;12.70;71.80
75621;DHT22;64574;48.506;-2.750;2023-03-23T09:07:30;12.70;71.80
75621;DHT22;64574;48.506;-2.750;2023-03-23T09:09:56;12.70;71.50
75621;DHT22;64574;48.506;-2.750;2023-03-23T09:12:21;12.80;71.20
75621;DHT22;64574;48.506;-2.750;2023-03-23T09:14:47;12.80;71.20
75621;DHT22;64574;48.506;-2.750;2023-03-23T09:17:13;12.80;70.80
75621;DHT22;64574;48.506;-2.750;2023-03-23T09:19:38;12.80;71.00
75621;DHT22;64574;48.506;-2.750;2023-03-23T09:22:04;12.90;70.90
75621;DHT22;64574;48.506;-2.750;2023-03-23T09:24:30;13.00;70.80
75621;DHT22;64574;48.506;-2.750;2023-03-23T09:26:56;13.00;70.50
75621;DHT22;64574;48.506;-2.750;2023-03-23T09:29:24;13.00;70.30
75621;DHT22;64574;48.506;-2.750;2023-03-23T09:31:49;13.00;70.10
75621;DHT22;64574;48.506;-2.750;2023-03-23T09:34:15;13.00;70.10
75621;DHT22;64574;48.506;-2.750;2023-03-23T09:36:43;13.10;69.80
75621;DHT22;64574;48.506;-2.750;2023-03-23T09:39:10;13.10;70.20
75621;DHT22;64574;48.506;-2.750;2023-03-23T09:50:26;13.30;69.70
75621;DHT22;64574;48.506;-2.750;2023-03-23T09:53:05;13.30;69.80
75621;DHT22;64574;48.506;-2.750;2023-03-23T09:55:34;13.30;69.20
75621;DHT22;64574;48.506;-2.750;2023-03-23T10:00:38;13.50;69.10
75621;DHT22;64574;48.506;-2.750;2023-03-23T10:03:17;13.40;68.70
75621;DHT22;64574;48.506;-2.750;2023-03-23T10:05:44;13.50;68.20
75621;DHT22;64574;48.506;-2.750;2023-03-23T10:08:17;13.50;67.90
75621;DHT22;64574;48.506;-2.750;2023-03-23T10:13:24;13.60;66.80
75621;DHT22;64574;48.506;-2.750;2023-03-23T10:15:51;13.60;67.60
75621;DHT22;64574;48.506;-2.750;2023-03-23T10:18:24;13.60;66.20
75621;DHT22;64574;48.506;-2.750;2023-03-23T10:21:00;13.70;67.00
75621;DHT22;64574;48.506;-2.750;2023-03-23T10:29:11;13.70;65.80
75621;DHT22;64574;48.506;-2.750;2023-03-23T10:31:45;13.70;65.20
75621;DHT22;64574;48.506;-2.750;2023-03-23T10:34:32;13.70;65.00
75621;DHT22;64574;48.506;-2.750;2023-03-23T10:37:09;13.90;65.10
75621;DHT22;64574;48.506;-2.750;2023-03-23T10:39:57;13.70;65.70
75621;DHT22;64574;48.506;-2.750;2023-03-23T10:42:26;13.60;65.00
75621;DHT22;64574;48.506;-2.750;2023-03-23T10:44:53;13.60;64.50
75621;DHT22;64574;48.506;-2.750;2023-03-23T10:47:19;13.70;65.80
75621;DHT22;64574;48.506;-2.750;2023-03-23T10:49:58;13.90;66.10
75621;DHT22;64574;48.506;-2.750;2023-03-23T10:55:04;13.90;65.40
75621;DHT22;64574;48.506;-2.750;2023-03-23T10:57:31;13.80;65.50
75621;DHT22;64574;48.506;-2.750;2023-03-23T11:05:49;14.00;63.20
75621;DHT22;64574;48.506;-2.750;2023-03-23T11:08:20;14.00;63.00
75621;DHT22;64574;48.506;-2.750;2023-03-23T11:13:16;13.90;63.00
75621;DHT22;64574;48.506;-2.750;2023-03-23T11:15:44;14.00;63.50
75621;DHT22;64574;48.506;-2.750;2023-03-23T11:18:19;14.00;63.60
75621;DHT22;64574;48.506;-2.750;2023-03-23T11:20:49;14.00;64.10
75621;DHT22;64574;48.506;-2.750;2023-03-23T11:23:24;14.00;64.50
75621;DHT22;64574;48.506;-2.750;2023-03-23T11:25:57;14.10;64.90
75621;DHT22;64574;48.506;-2.750;2023-03-23T11:31:12;14.00;65.00
75621;DHT22;64574;48.506;-2.750;2023-03-23T11:33:55;14.10;64.50
75621;DHT22;64574;48.506;-2.750;2023-03-23T11:36:33;14.10;64.50
75621;DHT22;64574;48.506;-2.750;2023-03-23T11:38:59;14.10;64.60
75621;DHT22;64574;48.506;-2.750;2023-03-23T11:41:31;14.00;64.80
75621;DHT22;64574;48.506;-2.750;2023-03-23T11:43:56;14.10;65.70
75621;DHT22;64574;48.506;-2.750;2023-03-23T11:49:01;14.10;65.00
75621;DHT22;64574;48.506;-2.750;2023-03-23T11:51:33;14.20;65.40
75621;DHT22;64574;48.506;-2.750;2023-03-23T11:56:47;14.00;66.70
75621;DHT22;64574;48.506;-2.750;2023-03-23T11:59:16;13.90;67.70
75621;DHT22;64574;48.506;-2.750;2023-03-23T12:02:13;13.90;68.20
75621;DHT22;64574;48.506;-2.750;2023-03-23T12:11:06;14.10;68.40
75621;DHT22;64574;48.506;-2.750;2023-03-23T12:13:42;14.10;68.60
75621;DHT22;64574;48.506;-2.750;2023-03-23T12:22:14;14.20;69.20
75621;DHT22;64574;48.506;-2.750;2023-03-23T12:27:35;14.20;68.70
75621;DHT22;64574;48.506;-2.750;2023-03-23T12:44:22;14.70;66.20
75621;DHT22;64574;48.506;-2.750;2023-03-23T12:49:32;14.40;65.60
75621;DHT22;64574;48.506;-2.750;2023-03-23T12:52:09;14.20;65.80
75621;DHT22;64574;48.506;-2.750;2023-03-23T12:54:42;14.30;65.10
75621;DHT22;64574;48.506;-2.750;2023-03-23T12:57:16;14.40;65.00
75621;DHT22;64574;48.506;-2.750;2023-03-23T13:02:31;14.50;62.60
75621;DHT22;64574;48.506;-2.750;2023-03-23T13:05:13;14.50;62.20
75621;DHT22;64574;48.506;-2.750;2023-03-23T13:07:49;14.50;62.00
75621;DHT22;64574;48.506;-2.750;2023-03-23T13:10:25;14.40;62.80
75621;DHT22;64574;48.506;-2.750;2023-03-23T13:12:53;14.40;62.90
75621;DHT22;64574;48.506;-2.750;2023-03-23T13:28:31;14.20;60.40
75621;DHT22;64574;48.506;-2.750;2023-03-23T13:31:03;14.20;59.60
75621;DHT22;64574;48.506;-2.750;2023-03-23T13:33:34;14.20;59.90
75621;DHT22;64574;48.506;-2.750;2023-03-23T13:36:09;14.00;60.20
75621;DHT22;64574;48.506;-2.750;2023-03-23T13:38:36;14.00;58.90
75621;DHT22;64574;48.506;-2.750;2023-03-23T13:41:10;14.00;58.70
75621;DHT22;64574;48.506;-2.750;2023-03-23T13:43:37;14.00;60.00
75621;DHT22;64574;48.506;-2.750;2023-03-23T13:46:08;14.00;60.40
75621;DHT22;64574;48.506;-2.750;2023-03-23T13:51:34;13.80;62.80
75621;DHT22;64574;48.506;-2.750;2023-03-23T13:56:57;13.80;64.80
75621;DHT22;64574;48.506;-2.750;2023-03-23T14:01:56;13.70;66.50
75621;DHT22;64574;48.506;-2.750;2023-03-23T14:04:30;13.70;66.80
75621;DHT22;64574;48.506;-2.750;2023-03-23T14:07:09;13.60;66.00
75621;DHT22;64574;48.506;-2.750;2023-03-23T14:09:41;13.50;67.10
75621;DHT22;64574;48.506;-2.750;2023-03-23T14:12:27;13.50;67.70
75621;DHT22;64574;48.506;-2.750;2023-03-23T14:15:00;13.30;68.20
75621;DHT22;64574;48.506;-2.750;2023-03-23T14:17:35;13.30;68.80
75621;DHT22;64574;48.506;-2.750;2023-03-23T14:20:05;13.10;68.50
75621;DHT22;64574;48.506;-2.750;2023-03-23T14:22:36;13.00;69.60
75621;DHT22;64574;48.506;-2.750;2023-03-23T14:25:17;13.10;70.40
75621;DHT22;64574;48.506;-2.750;2023-03-23T14:27:44;13.00;71.20
75621;DHT22;64574;48.506;-2.750;2023-03-23T14:30:15;13.10;72.00
75621;DHT22;64574;48.506;-2.750;2023-03-23T14:32:42;13.10;72.40
75621;DHT22;64574;48.506;-2.750;2023-03-23T14:37:51;13.20;72.40
75621;DHT22;64574;48.506;-2.750;2023-03-23T14:40:18;13.20;72.10
75621;DHT22;64574;48.506;-2.750;2023-03-23T14:42:44;13.30;72.80
75621;DHT22;64574;48.506;-2.750;2023-03-23T14:45:15;13.30;72.80
75621;DHT22;64574;48.506;-2.750;2023-03-23T14:47:58;13.10;72.90
75621;DHT22;64574;48.506;-2.750;2023-03-23T14:50:39;13.20;73.70
75621;DHT22;64574;48.506;-2.750;2023-03-23T14:53:22;13.20;74.80
75621;DHT22;64574;48.506;-2.750;2023-03-23T14:55:50;13.30;75.10
75621;DHT22;64574;48.506;-2.750;2023-03-23T14:58:19;13.10;75.40
75621;DHT22;64574;48.506;-2.750;2023-03-23T15:00:54;13.10;76.10
75621;DHT22;64574;48.506;-2.750;2023-03-23T15:03:22;13.10;76.90
75621;DHT22;64574;48.506;-2.750;2023-03-23T15:05:52;13.00;77.30
75621;DHT22;64574;48.506;-2.750;2023-03-23T15:08:25;13.00;78.00
75621;DHT22;64574;48.506;-2.750;2023-03-23T15:11:20;13.00;78.20
75621;DHT22;64574;48.506;-2.750;2023-03-23T15:13:48;13.00;78.70
75621;DHT22;64574;48.506;-2.750;2023-03-23T15:16:25;12.90;79.10
75621;DHT22;64574;48.506;-2.750;2023-03-23T15:18:56;12.90;78.90
75621;DHT22;64574;48.506;-2.750;2023-03-23T15:21:34;12.90;79.20
75621;DHT22;64574;48.506;-2.750;2023-03-23T15:24:01;12.80;77.80
75621;DHT22;64574;48.506;-2.750;2023-03-23T15:26:33;12.70;77.30
75621;DHT22;64574;48.506;-2.750;2023-03-23T15:31:48;12.70;76.50
75621;DHT22;64574;48.506;-2.750;2023-03-23T15:34:36;12.60;76.90
75621;DHT22;64574;48.506;-2.750;2023-03-23T15:37:15;12.50;78.30
75621;DHT22;64574;48.506;-2.750;2023-03-23T15:39:44;12.40;77.80
75621;DHT22;64574;48.506;-2.750;2023-03-23T15:42:22;12.30;76.60
75621;DHT22;64574;48.506;-2.750;2023-03-23T15:44:56;12.30;76.80
75621;DHT22;64574;48.506;-2.750;2023-03-23T15:47:22;12.50;76.70
75621;DHT22;64574;48.506;-2.750;2023-03-23T15:50:02;12.50;76.40
75621;DHT22;64574;48.506;-2.750;2023-03-23T15:52:28;12.50;76.50
75621;DHT22;64574;48.506;-2.750;2023-03-23T15:54:54;12.50;76.10
75621;DHT22;64574;48.506;-2.750;2023-03-23T15:57:20;12.50;76.50
75621;DHT22;64574;48.506;-2.750;2023-03-23T15:59:45;12.50;76.70
75621;DHT22;64574;48.506;-2.750;2023-03-23T16:02:21;12.50;76.60
75621;DHT22;64574;48.506;-2.750;2023-03-23T16:04:49;12.50;77.00
75621;DHT22;64574;48.506;-2.750;2023-03-23T16:07:15;12.50;77.50
75621;DHT22;64574;48.506;-2.750;2023-03-23T16:09:41;12.40;77.70
75621;DHT22;64574;48.506;-2.750;2023-03-23T16:12:11;12.40;78.20
75621;DHT22;64574;48.506;-2.750;2023-03-23T16:14:40;12.30;78.30
75621;DHT22;64574;48.506;-2.750;2023-03-23T16:17:09;12.40;78.60
75621;DHT22;64574;48.506;-2.750;2023-03-23T16:19:36;12.50;78.60
75621;DHT22;64574;48.506;-2.750;2023-03-23T16:22:01;12.40;78.60
75621;DHT22;64574;48.506;-2.750;2023-03-23T16:24:27;12.50;79.00
75621;DHT22;64574;48.506;-2.750;2023-03-23T16:26:52;12.50;79.30
75621;DHT22;64574;48.506;-2.750;2023-03-23T16:29:18;12.50;79.30
75621;DHT22;64574;48.506;-2.750;2023-03-23T16:31:44;12.50;79.60
75621;DHT22;64574;48.506;-2.750;2023-03-23T16:34:09;12.50;79.80
75621;DHT22;64574;48.506;-2.750;2023-03-23T16:36:35;12.50;80.00
75621;DHT22;64574;48.506;-2.750;2023-03-23T16:39:01;12.50;80.30
75621;DHT22;64574;48.506;-2.750;2023-03-23T16:41:27;12.50;80.50
75621;DHT22;64574;48.506;-2.750;2023-03-23T16:43:53;12.50;81.00
75621;DHT22;64574;48.506;-2.750;2023-03-23T16:46:21;12.50;81.20
75621;DHT22;64574;48.506;-2.750;2023-03-23T16:48:47;12.50;81.50
75621;DHT22;64574;48.506;-2.750;2023-03-23T16:51:13;12.50;81.70
75621;DHT22;64574;48.506;-2.750;2023-03-23T16:53:38;12.50;81.90
75621;DHT22;64574;48.506;-2.750;2023-03-23T16:56:07;12.60;81.80
75621;DHT22;64574;48.506;-2.750;2023-03-23T16:58:33;12.60;82.00
75621;DHT22;64574;48.506;-2.750;2023-03-23T17:01:00;12.60;82.30
75621;DHT22;64574;48.506;-2.750;2023-03-23T17:03:25;12.60;82.50
75621;DHT22;64574;48.506;-2.750;2023-03-23T17:05:51;12.70;82.60
75621;DHT22;64574;48.506;-2.750;2023-03-23T17:08:18;12.70;82.40
75621;DHT22;64574;48.506;-2.750;2023-03-23T17:10:44;12.70;82.40
75621;DHT22;64574;48.506;-2.750;2023-03-23T17:13:11;12.70;82.50
75621;DHT22;64574;48.506;-2.750;2023-03-23T17:15:41;12.70;82.60
75621;DHT22;64574;48.506;-2.750;2023-03-23T17:18:06;12.70;82.60
75621;DHT22;64574;48.506;-2.750;2023-03-23T17:20:33;12.70;82.70
75621;DHT22;64574;48.506;-2.750;2023-03-23T17:22:59;12.70;82.80
75621;DHT22;64574;48.506;-2.750;2023-03-23T17:25:25;12.70;82.90
75621;DHT22;64574;48.506;-2.750;2023-03-23T17:27:52;12.60;83.30
75621;DHT22;64574;48.506;-2.750;2023-03-23T17:30:18;12.70;83.40